METAR AND TAF INFORMATION
METAR FOR VOBL
ADDS - METARS form results

(0117 UTC 18 June 2019)
Data provider http://aviationweather.gov/metar/data/
 
METAR text: VOBL 180100Z 27009KT 6000 SCT012 22/22 Q1013 NOSIG
Conditions at: VOBL (BENGALURU , IN) observed 0100 UTC 18 June 2019
Temperature: 22.0°C (72°F)
Dewpoint: 22.0°C (72°F) [RH = 100%]
Pressure (altimeter): 29.91 inches Hg (1013.0 mb)
Winds: from the W (270 degrees) at 10 MPH (9 knots; 4.6 m/s)
Visibility: 4 miles ( 6 km)
Ceiling: at least 12,000 feet AGL
Clouds: scattered clouds at 1200 feet AGL
Weather: no significant weather observed at this time

METAR text: VOBL 180030Z 27007KT 6000 SCT012 22/22 Q1013 NOSIG
Conditions at: VOBL (BENGALURU , IN) observed 0030 UTC 18 June 2019
Temperature: 22.0°C (72°F)
Dewpoint: 22.0°C (72°F) [RH = 100%]
Pressure (altimeter): 29.91 inches Hg (1013.0 mb)
Winds: from the W (270 degrees) at 8 MPH (7 knots; 3.6 m/s)
Visibility: 4 miles ( 6 km)
Ceiling: at least 12,000 feet AGL
Clouds: scattered clouds at 1200 feet AGL
Weather: no significant weather observed at this time

Forecast for: VOBL (BENGALURU , IN)
Text: TAF VOBL 172300Z 1800/1906 27010KT 6000 SCT012
Forecast period: 0000 UTC 18 June 2019 to 0600 UTC 19 June 2019
Forecast type: FROM: standard forecast or significant change
Winds: from the W (270 degrees) at 12 MPH (10 knots; 5.1 m/s)
Visibility: 4 miles (6 km)
Ceiling: at least 12,000 feet AGL
Clouds: scattered clouds at 1200 feet AGL
Weather: no significant weather forecast for this period
Text: TEMPO 1800/1803 4000 BR SCT010 SCT012
Forecast period: 0000 to 0300 UTC 18 June 2019
Forecast type: TEMPORARY: The following changes expected for less than half the time period
Visibility: 2.49 miles (4.01 km)
Ceiling: at least 12,000 feet AGL
Clouds: scattered clouds at 1000 feet AGL
scattered clouds at 1200 feet AGL
Weather: BR  (mist)
Text: TEMPO 1900/1903 4000 BR SCT010 SCT012
Forecast period: 0000 to 0300 UTC 19 June 2019
Forecast type: TEMPORARY: The following changes expected for less than half the time period
Visibility: 2.49 miles (4.01 km)
Ceiling: at least 12,000 feet AGL
Clouds: scattered clouds at 1000 feet AGL
scattered clouds at 1200 feet AGL
Weather: BR  (mist)

 AIRPORT MAP

 RUNWAY INFORMATION
Runway 09 Runway length 13123 ft Runway width 148 ft
Runway elevation 3001 ft Runway displaced threshold 0 ft Runway heading 92
Runway 27 Runway length 13123 ft Runway width 148 ft
Runway elevation 2917 ft Runway displaced threshold 0 ft Runway heading 272

 AIRPORT FREQUENCIES
Type APP Name Frequency 121.25 MHZ
Type ATIS Name Frequency 128.675 MHZ
Type DELIVERY Name Frequency 121.82 MHZ
Type SMC Name Frequency 121.65 MHZ
Type TOWER Name Frequency 124.35 MHZ

 AIRPORT NEAR NAVIGATION AIDS



Powered by Virtual Airlines Manager [v2.6.2]